Monterey, CA (93940)

4:04 AM PDT on July 29, 2016 (GMT -0700)
Monterey Peninsula | | Change Station

Elev 253 ft 36.59 °N, 121.84 °W | Updated 10 minutes ago

Overcast
Overcast
53 °F
Feels Like 53 °F
N
0
Wind Variable Wind from North

Today
High -- | Low -- °F
--% Chance of Precip.
Yesterday
High -- | Low -- °F
Precip. -- in
Pressure 29.91 in
Visibility 1.8 miles
Clouds Overcast 100 ft
Dew Point 52 °F
Humidity 96%
Rainfall 0.00 in
Snow Depth Not available.
6:11 AM 8:15 PM
Waning Crescent, 23% visible
METAR KMRY 291054Z AUTO 00000KT 1 3/4SM BR FU OVC001 12/11 A2987 RMK AO2 VIS 3/4V4 SLP126 T01170111 TSNO
Pressure 29.91 in
Visibility 1.8 miles
Clouds Overcast 100 ft
Dew Point 52 °F
Humidity 96%
Rainfall 0.00 in
Snow Depth Not available.
6:11 AM 8:15 PM
Waning Crescent, 23% visible
METAR KMRY 291054Z AUTO 00000KT 1 3/4SM BR FU OVC001 12/11 A2987 RMK AO2 VIS 3/4V4 SLP126 T01170111 TSNO

10-Day Weather Forecast

Almanac

Astronomy

Jul. 29, 2016 Rise Set
Actual Time
Civil Twilight
Nautical Twilight
Astronomical Twilight
Moon
Length of Visible Light
Length of Day
Tomorrow will be .
, % of the Moon is Illuminated

Today's Extremes

State Highs State Lows

Community

WunderPhotos

Upload Photos

1,928,312 photos uploaded!

WunderBlog® & News

Nearby

Air Quality

  Air Quality AQ Index Pollutant
Not available.

Snow Depth

Station Depth Elevation

Earthquake Activity

City Distance Mag. Time & Date
Minimum magnitude displayed is 2.5.

Coastal Water Temperatures

Place Temperature

Stations

Nearby Weather Stations

Station Location Temp. Windchill Dew Point Humidity Wind Precip. Elev Updated Type
                   

Watches & Warnings

There are currently no watches in effect.